createdAt,value
2018-10-03T00:02:26.230Z,99.90
2018-10-03T00:04:53.524Z,99.90
2018-10-03T00:07:20.957Z,99.90
2018-10-03T00:09:48.187Z,99.90
2018-10-03T00:12:15.453Z,99.90
2018-10-03T00:14:42.728Z,99.90
2018-10-03T00:17:09.984Z,99.90
2018-10-03T00:19:37.278Z,99.90
2018-10-03T00:22:04.546Z,99.90
2018-10-03T00:24:31.815Z,99.90
2018-10-03T00:26:59.085Z,99.90
2018-10-03T00:29:26.347Z,99.90
2018-10-03T00:31:53.603Z,99.90
2018-10-03T00:34:20.919Z,99.90
2018-10-03T00:36:48.222Z,99.90
2018-10-03T00:39:15.519Z,99.90
2018-10-03T00:41:42.772Z,99.90
2018-10-03T00:44:09.991Z,99.90
2018-10-03T00:46:37.572Z,99.90
2018-10-03T00:49:05.557Z,99.90
2018-10-03T00:51:32.787Z,99.90
2018-10-03T00:53:59.981Z,99.90
2018-10-03T00:56:28.203Z,99.90
2018-10-03T00:58:55.432Z,99.90
2018-10-03T01:01:22.717Z,99.90
2018-10-03T01:03:49.951Z,99.90
2018-10-03T01:06:17.176Z,99.90
2018-10-03T01:08:44.397Z,99.90
2018-10-03T01:11:11.624Z,99.90
2018-10-03T01:13:38.963Z,99.90
2018-10-03T01:16:06.171Z,99.90
2018-10-03T01:18:33.375Z,99.90
2018-10-03T01:21:00.632Z,99.90
2018-10-03T01:23:27.936Z,99.90
2018-10-03T01:25:55.183Z,99.90
2018-10-03T01:28:22.434Z,99.90
2018-10-03T01:30:49.663Z,99.90
2018-10-03T01:33:16.936Z,99.90
2018-10-03T01:35:44.120Z,99.90
2018-10-03T01:38:11.346Z,99.90
2018-10-03T01:40:38.569Z,99.90
2018-10-03T01:43:05.886Z,99.90
2018-10-03T01:45:33.160Z,99.90
2018-10-03T01:48:00.355Z,99.90
2018-10-03T01:50:27.614Z,99.90
2018-10-03T01:52:54.873Z,99.90
2018-10-03T01:55:22.124Z,99.90
2018-10-03T01:57:49.648Z,99.90
2018-10-03T02:00:16.965Z,99.90
2018-10-03T02:02:44.280Z,99.90
2018-10-03T02:05:11.543Z,99.90
2018-10-03T02:07:38.754Z,99.90
2018-10-03T02:10:06.002Z,99.90
2018-10-03T02:12:33.218Z,99.90
2018-10-03T02:15:00.431Z,99.90
2018-10-03T02:17:27.705Z,99.90
2018-10-03T02:19:54.928Z,99.90
2018-10-03T02:22:22.162Z,99.90
2018-10-03T02:24:49.379Z,99.90
2018-10-03T02:27:16.623Z,99.90
2018-10-03T02:29:43.828Z,99.90
2018-10-03T02:32:11.080Z,99.90
2018-10-03T02:34:38.287Z,99.90
2018-10-03T02:37:05.483Z,99.90
2018-10-03T02:39:32.691Z,99.90
2018-10-03T02:41:59.892Z,99.90
2018-10-03T02:44:27.096Z,99.90
2018-10-03T02:46:54.292Z,99.90
2018-10-03T02:49:21.548Z,99.90
2018-10-03T02:51:48.799Z,99.90
2018-10-03T02:54:16.114Z,99.90
2018-10-03T02:56:43.364Z,99.90
2018-10-03T02:59:10.703Z,99.90
2018-10-03T03:01:38.027Z,99.90
2018-10-03T03:04:05.224Z,99.90
2018-10-03T03:06:32.485Z,99.90
2018-10-03T03:08:59.756Z,99.90
2018-10-03T03:11:26.979Z,99.90
2018-10-03T03:13:54.233Z,99.90
2018-10-03T03:16:21.595Z,99.90
2018-10-03T03:18:48.847Z,99.90
2018-10-03T03:21:16.287Z,99.90
2018-10-03T03:23:43.539Z,99.90
2018-10-03T03:26:10.855Z,99.90
2018-10-03T03:28:38.088Z,99.90
2018-10-03T03:31:05.383Z,99.90
2018-10-03T03:33:32.673Z,99.90
2018-10-03T03:35:59.919Z,99.90
2018-10-03T03:38:27.167Z,99.90
2018-10-03T03:40:54.421Z,99.90
2018-10-03T03:43:21.754Z,99.90
2018-10-03T03:45:49.191Z,99.90
2018-10-03T03:48:16.519Z,99.90
2018-10-03T03:50:43.885Z,99.90
2018-10-03T03:53:11.262Z,99.90
2018-10-03T03:55:38.640Z,99.90
2018-10-03T03:58:06.008Z,99.90
2018-10-03T04:00:33.722Z,99.90
2018-10-03T04:03:01.112Z,99.90
2018-10-03T04:05:28.508Z,99.90
2018-10-03T04:07:55.888Z,99.90
2018-10-03T04:10:23.340Z,99.90
2018-10-03T04:12:50.866Z,99.90
2018-10-03T04:15:18.394Z,99.90
2018-10-03T04:17:45.774Z,99.90
2018-10-03T04:20:13.099Z,99.90
2018-10-03T04:22:40.472Z,99.90
2018-10-03T04:25:07.948Z,99.90
2018-10-03T04:27:35.526Z,99.90
2018-10-03T04:30:03.034Z,99.90
2018-10-03T04:32:30.450Z,99.90
2018-10-03T04:34:57.911Z,99.90
2018-10-03T04:37:25.306Z,99.90
2018-10-03T04:39:52.650Z,99.90
2018-10-03T04:42:20.019Z,99.90
2018-10-03T04:44:47.249Z,99.90
2018-10-03T04:47:14.573Z,99.90
2018-10-03T04:49:41.909Z,99.90
2018-10-03T04:52:09.287Z,99.90
2018-10-03T04:54:36.581Z,99.90
2018-10-03T04:57:03.932Z,99.90
2018-10-03T04:59:31.284Z,99.90
2018-10-03T05:01:58.599Z,99.90
2018-10-03T05:04:25.893Z,99.90
2018-10-03T05:06:53.422Z,99.90
2018-10-03T05:09:20.921Z,99.90
2018-10-03T05:11:48.270Z,99.90
2018-10-03T05:14:15.627Z,99.90
2018-10-03T05:16:44.439Z,99.90
2018-10-03T05:19:11.822Z,99.90
2018-10-03T05:21:39.187Z,99.90
2018-10-03T05:24:06.591Z,99.90
2018-10-03T05:26:33.968Z,99.90
2018-10-03T05:29:01.307Z,99.90
2018-10-03T05:31:30.748Z,99.90
2018-10-03T05:33:58.159Z,99.90
2018-10-03T05:36:26.095Z,99.90
2018-10-03T05:38:53.597Z,99.90
2018-10-03T05:41:20.907Z,99.90
2018-10-03T05:43:48.347Z,99.90
2018-10-03T05:46:15.734Z,99.90
2018-10-03T05:48:43.135Z,99.90
2018-10-03T05:51:10.437Z,99.90
2018-10-03T05:53:37.859Z,99.90
2018-10-03T05:56:05.128Z,99.90
2018-10-03T05:58:32.725Z,99.90
2018-10-03T06:01:00.091Z,99.90
2018-10-03T06:03:27.645Z,99.90
2018-10-03T06:05:55.072Z,99.90
2018-10-03T06:08:22.526Z,99.90
2018-10-03T06:10:49.915Z,99.90
2018-10-03T06:13:17.362Z,99.90
2018-10-03T06:15:44.880Z,99.90
2018-10-03T06:18:12.226Z,99.90
2018-10-03T06:20:39.826Z,99.90
2018-10-03T06:23:07.373Z,99.90
2018-10-03T06:25:34.719Z,99.90
2018-10-03T06:28:02.162Z,99.90
2018-10-03T06:30:29.516Z,99.90
2018-10-03T06:32:57.084Z,99.90
2018-10-03T06:35:24.447Z,99.90
2018-10-03T06:37:51.772Z,99.90
2018-10-03T06:40:19.170Z,99.90
2018-10-03T06:42:46.518Z,99.90
2018-10-03T06:45:13.866Z,99.90
2018-10-03T06:47:41.262Z,99.90
2018-10-03T06:50:08.687Z,99.90
2018-10-03T06:52:36.070Z,99.90
2018-10-03T06:55:03.906Z,99.90
2018-10-03T06:57:31.403Z,99.90
2018-10-03T06:59:58.716Z,99.90
2018-10-03T07:02:26.164Z,99.90
2018-10-03T07:04:53.495Z,99.90
2018-10-03T07:07:21.197Z,99.90
2018-10-03T07:09:48.545Z,99.90
2018-10-03T07:12:16.004Z,99.90
2018-10-03T07:14:43.376Z,99.90
2018-10-03T07:17:10.982Z,99.90
2018-10-03T07:19:38.391Z,99.90
2018-10-03T07:22:05.757Z,99.90
2018-10-03T07:24:33.086Z,99.90
2018-10-03T07:27:00.381Z,99.90
2018-10-03T07:29:27.868Z,99.90
2018-10-03T07:31:55.276Z,99.90
2018-10-03T07:34:23.045Z,99.90
2018-10-03T07:36:50.535Z,99.90
2018-10-03T07:39:17.867Z,99.90
2018-10-03T07:41:45.146Z,99.90
2018-10-03T07:44:12.504Z,99.90
2018-10-03T07:46:39.763Z,99.90
2018-10-03T07:49:07.096Z,99.90
2018-10-03T07:51:34.383Z,99.90
2018-10-03T07:54:02.224Z,99.90
2018-10-03T07:56:29.627Z,99.90
2018-10-03T07:58:56.950Z,99.90
2018-10-03T08:01:24.234Z,99.90
2018-10-03T08:03:52.406Z,99.90
2018-10-03T08:06:19.662Z,99.90
2018-10-03T08:08:46.943Z,99.90
2018-10-03T08:11:14.175Z,99.90
2018-10-03T08:13:41.477Z,99.90
2018-10-03T08:16:08.747Z,99.90
2018-10-03T08:18:36.047Z,99.90
2018-10-03T08:21:03.369Z,99.90
2018-10-03T08:23:30.997Z,99.90
2018-10-03T08:25:58.255Z,99.90
2018-10-03T08:28:25.512Z,99.90
2018-10-03T08:30:52.832Z,99.90
2018-10-03T08:33:20.451Z,99.90
2018-10-03T08:35:47.660Z,99.90
2018-10-03T08:38:14.966Z,99.90
2018-10-03T08:40:42.229Z,99.90
2018-10-03T08:43:09.559Z,99.90
2018-10-03T08:45:36.850Z,99.90
2018-10-03T08:48:04.084Z,99.90
2018-10-03T08:50:31.440Z,99.90
2018-10-03T08:52:58.704Z,99.90
2018-10-03T08:55:25.930Z,99.90
2018-10-03T08:57:53.128Z,99.90
2018-10-03T09:00:20.368Z,99.90
2018-10-03T09:02:47.595Z,99.90
2018-10-03T09:05:15.447Z,99.90
2018-10-03T09:07:42.690Z,99.90
2018-10-03T09:10:10.148Z,99.90
2018-10-03T09:12:37.429Z,99.90
2018-10-03T09:15:04.825Z,99.90
2018-10-03T09:17:32.213Z,99.90
2018-10-03T09:19:59.464Z,99.90
2018-10-03T09:22:26.706Z,99.90
2018-10-03T09:24:53.961Z,99.90
2018-10-03T09:27:21.352Z,99.90
2018-10-03T09:29:48.595Z,99.90
2018-10-03T09:32:15.943Z,99.90
2018-10-03T09:34:43.277Z,99.90
2018-10-03T09:37:10.594Z,99.90
2018-10-03T09:39:37.992Z,99.90
2018-10-03T09:42:05.464Z,99.90
2018-10-03T09:44:32.900Z,99.90
2018-10-03T09:47:00.083Z,99.90
2018-10-03T09:49:27.379Z,99.90
2018-10-03T09:51:54.658Z,99.90
2018-10-03T09:54:22.048Z,99.90
2018-10-03T09:56:49.929Z,99.90
2018-10-03T09:59:17.287Z,99.90
2018-10-03T10:01:44.577Z,99.90
2018-10-03T10:04:12.711Z,99.90
2018-10-03T10:06:39.963Z,99.90
2018-10-03T10:09:08.359Z,99.90
2018-10-03T10:11:35.779Z,99.90
2018-10-03T10:14:03.187Z,99.90
2018-10-03T10:16:31.858Z,99.90
2018-10-03T10:18:59.164Z,98.10
2018-10-03T10:21:27.037Z,87.70
2018-10-03T10:23:54.251Z,81.40
2018-10-03T10:26:21.484Z,79.30
2018-10-03T10:28:48.715Z,74.30
2018-10-03T10:31:16.061Z,68.30
2018-10-03T10:33:43.299Z,71.50
2018-10-03T10:36:10.548Z,82.60
2018-10-03T10:38:37.792Z,84.60
2018-10-03T10:41:05.307Z,78.10
2018-10-03T10:43:32.472Z,66.70
2018-10-03T10:45:59.656Z,61.50
2018-10-03T10:48:27.276Z,56.70
2018-10-03T10:50:54.527Z,56.30
2018-10-03T10:53:21.735Z,54.80
2018-10-03T10:55:49.024Z,53.50
2018-10-03T10:58:16.240Z,52.90
2018-10-03T11:00:43.492Z,49.60
2018-10-03T11:03:10.702Z,53.00
2018-10-03T11:05:37.991Z,56.60
2018-10-03T11:08:05.225Z,63.60
2018-10-03T11:10:32.443Z,71.30
2018-10-03T11:12:59.667Z,77.90
2018-10-03T11:15:27.123Z,78.70
2018-10-03T11:17:54.924Z,77.30
2018-10-03T11:20:22.175Z,68.30
2018-10-03T11:22:49.445Z,64.80
2018-10-03T11:25:16.688Z,59.50
2018-10-03T11:27:43.959Z,60.20
2018-10-03T11:30:11.198Z,67.40
2018-10-03T11:32:38.476Z,63.90
2018-10-03T11:35:06.122Z,69.50
2018-10-03T11:37:33.344Z,72.20
2018-10-03T11:40:00.588Z,73.10
2018-10-03T11:42:27.823Z,70.80
2018-10-03T11:44:55.027Z,69.90
2018-10-03T11:47:22.246Z,65.40
2018-10-03T11:49:49.449Z,63.40
2018-10-03T11:52:16.699Z,60.50
2018-10-03T11:54:43.916Z,57.70
2018-10-03T11:57:11.273Z,53.30
2018-10-03T11:59:38.468Z,52.80
2018-10-03T12:02:05.759Z,54.30
2018-10-03T12:04:32.995Z,56.10
2018-10-03T12:07:00.241Z,57.30
2018-10-03T12:09:27.463Z,53.80
2018-10-03T12:11:55.220Z,50.90
2018-10-03T12:14:22.452Z,46.80
2018-10-03T12:16:49.688Z,43.60
2018-10-03T12:19:16.916Z,47.80
2018-10-03T12:21:44.147Z,52.30
2018-10-03T12:24:11.362Z,55.30
2018-10-03T12:26:38.630Z,59.00
2018-10-03T12:29:05.895Z,61.70
2018-10-03T12:31:33.200Z,69.00
2018-10-03T12:34:03.737Z,66.30
2018-10-03T12:36:38.788Z,58.70
2018-10-03T12:39:07.796Z,53.70
2018-10-03T12:41:35.208Z,54.20
2018-10-03T12:44:02.551Z,55.00
2018-10-03T12:46:29.882Z,57.20
2018-10-03T12:48:57.248Z,50.20
2018-10-03T12:51:24.541Z,45.60
2018-10-03T12:53:51.823Z,43.00
2018-10-03T12:56:19.151Z,36.20
2018-10-03T12:58:46.438Z,34.00
2018-10-03T13:01:13.717Z,33.40
2018-10-03T13:03:40.984Z,33.30
2018-10-03T13:06:08.280Z,32.60
2018-10-03T13:08:35.501Z,34.40
2018-10-03T13:11:02.784Z,36.10
2018-10-03T13:13:30.042Z,37.70
2018-10-03T13:15:57.264Z,41.60
2018-10-03T13:18:24.519Z,42.00
2018-10-03T13:20:51.783Z,43.40
2018-10-03T13:23:19.064Z,44.90
2018-10-03T13:25:46.350Z,43.90
2018-10-03T13:28:13.580Z,45.80
2018-10-03T13:30:40.847Z,45.90
2018-10-03T13:33:08.051Z,43.50
2018-10-03T13:35:35.336Z,39.90
2018-10-03T13:38:02.556Z,37.50
2018-10-03T13:40:29.771Z,37.30
2018-10-03T13:42:57.040Z,38.70
2018-10-03T13:45:24.287Z,39.00
2018-10-03T13:47:51.567Z,37.60
2018-10-03T13:50:18.820Z,39.00
2018-10-03T13:52:46.069Z,36.30
2018-10-03T13:55:13.396Z,35.30
2018-10-03T13:57:40.640Z,34.60
2018-10-03T14:00:08.252Z,34.50
2018-10-03T14:02:35.546Z,38.20
2018-10-03T14:05:02.811Z,42.20
2018-10-03T14:07:30.080Z,43.60
2018-10-03T14:09:57.363Z,45.50
2018-10-03T14:12:24.652Z,46.90
2018-10-03T14:14:51.933Z,47.20
2018-10-03T14:17:19.199Z,49.00
2018-10-03T14:19:46.472Z,49.60
2018-10-03T14:22:13.731Z,47.20
2018-10-03T14:24:40.991Z,43.90
2018-10-03T14:27:08.306Z,41.90
2018-10-03T14:29:35.636Z,42.50
2018-10-03T14:32:03.031Z,42.50
2018-10-03T14:34:30.297Z,43.10
2018-10-03T14:36:57.575Z,43.40
2018-10-03T14:39:24.859Z,43.00
2018-10-03T14:41:52.154Z,41.50
2018-10-03T14:44:19.457Z,41.30
2018-10-03T14:46:46.798Z,42.40
2018-10-03T14:49:14.012Z,43.30
2018-10-03T14:51:41.287Z,45.00
2018-10-03T14:54:08.553Z,45.20
2018-10-03T14:56:35.891Z,46.80
2018-10-03T14:59:03.191Z,46.00
2018-10-03T15:01:30.516Z,45.70
2018-10-03T15:03:57.770Z,47.30
2018-10-03T15:06:25.036Z,47.10
2018-10-03T15:08:52.288Z,47.20
2018-10-03T15:11:19.560Z,47.90
2018-10-03T15:13:46.879Z,48.10
2018-10-03T15:16:14.171Z,47.90
2018-10-03T15:18:41.439Z,48.90
2018-10-03T15:21:08.713Z,48.50
2018-10-03T15:23:36.053Z,48.60
2018-10-03T15:26:03.315Z,50.10
2018-10-03T15:28:30.586Z,49.90
2018-10-03T15:30:57.831Z,50.70
2018-10-03T15:33:25.092Z,52.50
2018-10-03T15:35:52.404Z,53.00
2018-10-03T15:38:19.907Z,54.10
2018-10-03T15:40:47.150Z,55.30
2018-10-03T15:43:14.407Z,56.40
2018-10-03T15:45:41.651Z,56.30
2018-10-03T15:48:08.959Z,55.00
2018-10-03T15:50:36.196Z,55.10
2018-10-03T15:53:03.451Z,53.70
2018-10-03T15:55:30.731Z,53.70
2018-10-03T15:57:57.943Z,54.40
2018-10-03T16:00:25.260Z,55.90
2018-10-03T16:02:52.472Z,56.60
2018-10-03T16:05:19.787Z,56.70
2018-10-03T16:07:47.072Z,58.30
2018-10-03T16:10:14.364Z,59.80
2018-10-03T16:12:41.616Z,61.20
2018-10-03T16:15:15.663Z,64.30
2018-10-03T16:17:42.936Z,64.60
2018-10-03T16:20:10.599Z,64.60
2018-10-03T16:22:38.072Z,66.10
2018-10-03T16:25:05.495Z,69.20
2018-10-03T16:27:33.192Z,69.10
2018-10-03T16:30:00.471Z,71.50
2018-10-03T16:32:27.962Z,73.10
2018-10-03T16:34:55.351Z,73.70
2018-10-03T16:37:22.644Z,73.30
2018-10-03T16:39:49.894Z,73.30
2018-10-03T16:42:17.143Z,72.20
2018-10-03T16:44:44.477Z,73.30
2018-10-03T16:47:11.744Z,74.10
2018-10-03T16:49:39.061Z,73.80
2018-10-03T16:52:06.719Z,76.10
2018-10-03T16:54:34.202Z,77.50
2018-10-03T16:57:01.964Z,76.80
2018-10-03T16:59:29.295Z,78.10
2018-10-03T17:01:56.965Z,80.60
2018-10-03T17:04:24.212Z,82.80
2018-10-03T17:06:53.029Z,84.10
2018-10-03T17:09:20.623Z,86.60
2018-10-03T17:11:47.924Z,85.90
2018-10-03T17:14:28.370Z,91.00
2018-10-03T17:16:55.890Z,89.30
2018-10-03T17:19:23.515Z,91.70
2018-10-03T17:21:51.618Z,93.50
2018-10-03T17:24:19.679Z,91.30
2018-10-03T17:26:50.484Z,92.60
2018-10-03T17:29:18.636Z,94.40
2018-10-03T17:31:46.665Z,99.80
2018-10-03T17:34:16.748Z,99.90
2018-10-03T17:36:45.860Z,99.90
2018-10-03T17:39:13.431Z,99.20
2018-10-03T17:41:41.573Z,99.90
2018-10-03T17:44:15.699Z,99.90
2018-10-03T17:46:43.186Z,99.90
2018-10-03T17:49:10.559Z,99.90
2018-10-03T17:51:42.404Z,99.90
2018-10-03T17:59:04.467Z,99.90
2018-10-03T18:01:33.853Z,99.90
2018-10-03T18:04:01.307Z,99.90
2018-10-03T18:08:55.933Z,99.90
2018-10-03T18:11:23.199Z,99.90
2018-10-03T18:13:50.625Z,99.90
2018-10-03T18:16:17.844Z,99.90
2018-10-03T18:18:45.142Z,99.90
2018-10-03T18:21:12.584Z,99.90
2018-10-03T18:23:39.903Z,99.90
2018-10-03T18:26:07.299Z,99.90
2018-10-03T18:28:34.641Z,99.90
2018-10-03T18:31:01.943Z,99.90
2018-10-03T18:33:29.219Z,99.90
2018-10-03T18:36:01.215Z,99.90
2018-10-03T18:38:28.575Z,99.90
2018-10-03T18:40:55.906Z,99.90
2018-10-03T18:43:23.159Z,99.90
2018-10-03T18:45:50.659Z,99.90
2018-10-03T18:48:18.007Z,99.90
2018-10-03T18:50:45.340Z,99.90
2018-10-03T18:53:12.668Z,99.90
2018-10-03T18:55:39.932Z,99.90
2018-10-03T18:58:07.242Z,99.90
2018-10-03T19:00:34.524Z,99.90
2018-10-03T19:03:01.833Z,99.90
2018-10-03T19:05:29.125Z,99.90
2018-10-03T19:07:56.379Z,99.90
2018-10-03T19:10:23.798Z,99.90
2018-10-03T19:12:51.536Z,99.90
2018-10-03T19:15:18.778Z,99.90
2018-10-03T19:17:46.066Z,99.90
2018-10-03T19:20:13.319Z,99.90
2018-10-03T19:22:40.560Z,99.90
2018-10-03T19:25:08.040Z,99.90
2018-10-03T19:27:35.369Z,99.90
2018-10-03T19:30:03.184Z,99.90
2018-10-03T19:32:30.944Z,99.90
2018-10-03T19:34:58.336Z,99.90
2018-10-03T19:37:25.637Z,99.90
2018-10-03T19:39:53.613Z,99.90
2018-10-03T19:42:20.864Z,99.90
2018-10-03T19:44:48.920Z,99.90
2018-10-03T19:47:17.155Z,99.90
2018-10-03T19:49:45.423Z,99.90
2018-10-03T19:52:14.168Z,99.90
2018-10-03T19:54:42.760Z,99.90
2018-10-03T19:57:10.510Z,99.90
2018-10-03T19:59:37.791Z,99.90
2018-10-03T20:02:05.354Z,99.90
2018-10-03T20:04:36.002Z,99.90
2018-10-03T20:07:03.893Z,99.90
2018-10-03T20:09:31.498Z,99.90
2018-10-03T20:11:58.997Z,99.90
2018-10-03T20:14:26.455Z,99.90
2018-10-03T20:16:53.723Z,99.90
2018-10-03T20:19:21.484Z,99.90
2018-10-03T20:21:49.483Z,99.90
2018-10-03T20:24:17.333Z,99.90
2018-10-03T20:26:44.745Z,99.90
2018-10-03T20:29:12.848Z,99.90
2018-10-03T20:31:45.883Z,99.90
2018-10-03T20:34:13.679Z,99.90
2018-10-03T20:36:40.947Z,99.90
2018-10-03T20:39:08.707Z,99.90
2018-10-03T20:41:36.732Z,99.90
2018-10-03T20:44:04.530Z,99.90
2018-10-03T20:46:32.522Z,99.90
2018-10-03T20:48:59.772Z,99.90
2018-10-03T20:51:27.571Z,99.90
2018-10-03T20:56:43.118Z,99.90
2018-10-03T20:59:10.406Z,99.90
2018-10-03T21:01:38.426Z,99.90
2018-10-03T21:04:05.895Z,99.90
2018-10-03T21:06:33.739Z,99.90
2018-10-03T21:09:01.099Z,99.90
2018-10-03T21:11:28.843Z,99.90
2018-10-03T21:13:56.129Z,99.90
2018-10-03T21:16:23.393Z,99.90
2018-10-03T21:18:50.687Z,99.90
2018-10-03T21:21:18.044Z,99.90
2018-10-03T21:23:45.368Z,99.90
2018-10-03T21:26:12.611Z,99.90
2018-10-03T21:28:39.862Z,99.90
2018-10-03T21:31:07.437Z,99.90
2018-10-03T21:33:34.691Z,99.90
2018-10-03T21:36:01.945Z,99.90
2018-10-03T21:38:29.224Z,99.90
2018-10-03T21:40:56.452Z,99.90
2018-10-03T21:43:23.679Z,99.90
2018-10-03T21:45:51.202Z,99.90
2018-10-03T21:48:18.519Z,99.90
2018-10-03T21:50:45.791Z,99.90
2018-10-03T21:53:13.064Z,99.90
2018-10-03T21:55:40.293Z,99.90
2018-10-03T21:58:07.555Z,99.90
2018-10-03T22:00:40.635Z,99.90
2018-10-03T22:03:07.915Z,99.90
2018-10-03T22:05:35.244Z,99.90
2018-10-03T22:08:02.796Z,99.90
2018-10-03T22:10:30.104Z,99.90
2018-10-03T22:12:57.452Z,99.90
2018-10-03T22:15:25.416Z,99.90
2018-10-03T22:17:52.787Z,99.90
2018-10-03T22:20:20.641Z,99.90
2018-10-03T22:22:48.104Z,99.90
2018-10-03T22:25:15.572Z,99.90
2018-10-03T22:27:42.990Z,99.90
2018-10-03T22:30:10.326Z,99.90
2018-10-03T22:32:37.823Z,99.90
2018-10-03T22:35:05.280Z,99.90
2018-10-03T22:37:32.626Z,99.90
2018-10-03T22:39:59.962Z,99.90
2018-10-03T22:42:27.275Z,99.90
2018-10-03T22:44:54.602Z,99.90
2018-10-03T22:47:22.199Z,99.90
2018-10-03T22:49:49.605Z,99.90
2018-10-03T22:52:17.283Z,99.90
2018-10-03T22:54:44.616Z,99.90
2018-10-03T22:57:11.986Z,99.90
2018-10-03T22:59:39.285Z,99.90
2018-10-03T23:02:08.601Z,99.90
2018-10-03T23:04:35.883Z,99.90
2018-10-03T23:07:03.246Z,99.90
2018-10-03T23:09:30.761Z,99.90
2018-10-03T23:11:58.112Z,99.90
2018-10-03T23:14:25.566Z,99.90
2018-10-03T23:16:52.913Z,99.90
2018-10-03T23:19:20.287Z,99.90
2018-10-03T23:21:47.655Z,99.90
2018-10-03T23:24:15.012Z,99.90
2018-10-03T23:26:42.377Z,99.90
2018-10-03T23:29:09.711Z,99.90
2018-10-03T23:31:36.964Z,99.90
2018-10-03T23:34:04.252Z,99.90
2018-10-03T23:36:31.519Z,99.90
2018-10-03T23:38:58.818Z,99.90
2018-10-03T23:41:26.143Z,99.90
2018-10-03T23:43:53.445Z,99.90
2018-10-03T23:46:20.777Z,99.90
2018-10-03T23:48:48.191Z,99.90
2018-10-03T23:51:15.553Z,99.90
2018-10-03T23:53:43.007Z,99.90
2018-10-03T23:56:10.327Z,99.90
2018-10-03T23:58:37.628Z,99.90
